Time;durP1;ratioP1;P1;durP2;ratioP2;P2;SDS_P1;SDS_P2;PMS_P1;PMS_P2;Temp;Humidity;BMP_temperature;BMP_pressure;BME280_temperature;BME280_humidity;BME280_pressure;Samples;Min_cycle;Max_cycle;Signal;HPM_P1;HPM_P2
2024/04/17 00:01:35;;;;;;;1.20;1.02;;;6.20;99.90;;;;;;5321062;26;20069;-74
2024/04/17 00:04:01;;;;;;;0.70;0.70;;;6.20;99.90;;;;;;5322484;26;20071;-73
2024/04/17 00:06:27;;;;;;;1.00;1.00;;;6.20;99.90;;;;;;5326928;26;20106;-73
2024/04/17 00:08:52;;;;;;;0.70;0.70;;;6.20;99.90;;;;;;5328259;26;20370;-73
2024/04/17 00:11:19;;;;;;;0.90;0.90;;;6.10;99.90;;;;;;5323658;26;20020;-73
2024/04/17 00:13:45;;;;;;;1.05;1.05;;;6.10;99.90;;;;;;5328959;26;20062;-73
2024/04/17 00:16:10;;;;;;;0.80;0.80;;;6.10;99.90;;;;;;5321594;26;20409;-74
2024/04/17 00:18:36;;;;;;;0.50;0.50;;;6.10;99.90;;;;;;5320852;26;20091;-72
2024/04/17 00:21:02;;;;;;;0.93;0.93;;;5.90;99.90;;;;;;5320072;26;19997;-73
2024/04/17 00:23:27;;;;;;;0.85;0.68;;;6.00;99.90;;;;;;5316348;26;20360;-73
2024/04/17 00:25:53;;;;;;;0.60;0.60;;;5.90;99.90;;;;;;5292221;27;20703;-73
2024/04/17 00:28:19;;;;;;;1.10;0.88;;;6.00;99.90;;;;;;5312584;26;20009;-73
2024/04/17 00:30:45;;;;;;;0.60;0.60;;;5.90;99.90;;;;;;5313482;26;21005;-73
2024/04/17 00:33:11;;;;;;;0.52;0.52;;;5.80;99.90;;;;;;5317349;26;20342;-73
2024/04/17 00:35:37;;;;;;;0.60;0.60;;;5.80;99.90;;;;;;5318250;26;20005;-73
2024/04/17 00:38:03;;;;;;;0.80;0.80;;;5.80;99.90;;;;;;5318286;26;20005;-74
2024/04/17 00:40:32;;;;;;;0.57;0.57;;;5.70;99.90;;;;;;5322424;26;20440;-74
2024/04/17 00:42:59;;;;;;;0.60;0.60;;;5.70;99.90;;;;;;5322801;26;20009;-73
2024/04/17 00:45:38;;;;;;;0.70;0.70;;;5.70;99.90;;;;;;5317567;26;20656;-74
2024/04/17 00:48:07;;;;;;;0.80;0.80;;;5.70;99.90;;;;;;5312376;26;20036;-74
2024/04/17 00:50:33;;;;;;;0.60;0.60;;;5.70;99.90;;;;;;5295431;26;20004;-73
2024/04/17 00:52:59;;;;;;;0.60;0.60;;;5.70;99.90;;;;;;5320485;26;20005;-74
2024/04/17 00:55:26;;;;;;;0.73;0.73;;;5.60;99.90;;;;;;5323628;26;20009;-73
2024/04/17 00:57:52;;;;;;;0.50;0.50;;;5.60;99.90;;;;;;5322315;26;20001;-74
2024/04/17 01:00:18;;;;;;;0.70;0.70;;;5.60;99.90;;;;;;5295043;26;20013;-74
2024/04/17 01:02:43;;;;;;;0.82;0.82;;;5.60;99.90;;;;;;5325934;26;20020;-75
2024/04/17 01:05:09;;;;;;;0.73;0.73;;;5.60;99.90;;;;;;5297880;26;20012;-75
2024/04/17 01:07:37;;;;;;;0.70;0.70;;;5.60;99.90;;;;;;5324008;26;20780;-74
2024/04/17 01:10:02;;;;;;;0.70;0.70;;;5.50;99.90;;;;;;5328338;26;20043;-75
2024/04/17 01:12:28;;;;;;;0.60;0.60;;;5.50;99.90;;;;;;5325598;26;19997;-74
2024/04/17 01:14:54;;;;;;;0.50;0.50;;;5.50;99.90;;;;;;5335130;26;20001;-77
2024/04/17 01:17:20;;;;;;;0.80;0.80;;;5.50;99.90;;;;;;5314052;26;20048;-75
2024/04/17 01:19:46;;;;;;;0.50;0.50;;;5.50;99.90;;;;;;5330153;26;20012;-74
2024/04/17 01:22:12;;;;;;;1.20;1.20;;;5.50;99.90;;;;;;5330422;26;20454;-75
2024/04/17 01:24:37;;;;;;;0.63;0.63;;;5.50;99.90;;;;;;5323517;26;20035;-75
2024/04/17 01:27:03;;;;;;;0.88;0.88;;;5.50;99.90;;;;;;5296995;26;20005;-75
2024/04/17 01:29:29;;;;;;;1.42;1.25;;;5.50;99.90;;;;;;5317475;26;20008;-75
2024/04/17 01:31:54;;;;;;;1.20;1.20;;;5.40;99.90;;;;;;5314375;26;20005;-76
2024/04/17 01:34:20;;;;;;;1.20;1.20;;;5.40;99.90;;;;;;5322360;26;20088;-75
2024/04/17 01:36:46;;;;;;;1.23;1.13;;;5.40;99.90;;;;;;5325499;26;20000;-76
2024/04/17 01:39:11;;;;;;;0.88;0.88;;;5.40;99.90;;;;;;5324767;26;20643;-76
2024/04/17 01:41:37;;;;;;;1.60;1.50;;;5.40;99.90;;;;;;5324043;26;20005;-76
2024/04/17 01:44:03;;;;;;;0.73;0.73;;;5.40;99.90;;;;;;5332609;26;20010;-75
2024/04/17 01:46:28;;;;;;;1.50;1.48;;;5.50;99.90;;;;;;5330358;26;20004;-75
2024/04/17 01:48:54;;;;;;;1.20;1.20;;;5.60;99.90;;;;;;5333294;26;19997;-76
2024/04/17 01:51:20;;;;;;;1.35;1.25;;;5.50;99.90;;;;;;5331360;26;19997;-76
2024/04/17 01:53:45;;;;;;;0.82;0.82;;;5.60;99.90;;;;;;5305773;26;20045;-76
2024/04/17 01:56:11;;;;;;;0.80;0.80;;;5.60;99.90;;;;;;5335561;26;20009;-77
2024/04/17 01:58:37;;;;;;;1.00;1.00;;;5.60;99.90;;;;;;5305131;26;20001;-76
2024/04/17 02:01:06;;;;;;;0.98;0.98;;;5.50;99.90;;;;;;5335168;26;20068;-76
2024/04/17 02:03:33;;;;;;;0.98;0.98;;;5.50;99.90;;;;;;5329655;26;20045;-78
2024/04/17 02:05:59;;;;;;;0.90;0.88;;;5.60;99.90;;;;;;5337183;26;20005;-77
2024/04/17 02:08:25;;;;;;;0.95;0.85;;;5.50;99.90;;;;;;5303477;26;20621;-77
2024/04/17 02:10:50;;;;;;;0.77;0.77;;;5.60;99.90;;;;;;5334534;26;19997;-78
2024/04/17 02:13:16;;;;;;;0.88;0.88;;;5.60;99.90;;;;;;5304734;26;20005;-76
2024/04/17 02:15:41;;;;;;;0.90;0.90;;;5.50;99.90;;;;;;5337302;26;19993;-77
2024/04/17 02:18:07;;;;;;;1.00;0.90;;;5.50;99.90;;;;;;5335865;26;19997;-76
2024/04/17 02:20:33;;;;;;;0.90;0.90;;;5.50;99.90;;;;;;5333475;26;19993;-76
2024/04/17 02:22:58;;;;;;;0.90;0.90;;;5.60;99.90;;;;;;5307114;26;20400;-76
2024/04/17 02:25:24;;;;;;;0.60;0.60;;;5.60;99.90;;;;;;5332747;26;19997;-76
2024/04/17 02:27:50;;;;;;;0.90;0.90;;;5.50;99.90;;;;;;5338511;26;20017;-76
2024/04/17 02:30:15;;;;;;;0.80;0.80;;;5.50;99.90;;;;;;5306286;26;20016;-76
2024/04/17 02:32:41;;;;;;;1.00;1.00;;;5.50;99.90;;;;;;5334044;26;20342;-76
2024/04/17 02:35:07;;;;;;;0.85;0.85;;;5.60;99.90;;;;;;5333717;26;20071;-76
2024/04/17 02:37:32;;;;;;;0.80;0.80;;;5.60;99.90;;;;;;5335826;26;19996;-76
2024/04/17 02:39:58;;;;;;;2.05;1.00;;;5.50;99.90;;;;;;5306448;26;20005;-76
2024/04/17 02:42:24;;;;;;;1.05;1.05;;;5.50;99.90;;;;;;5334889;26;20009;-76
2024/04/17 02:44:49;;;;;;;0.85;0.85;;;5.50;99.90;;;;;;5311122;26;20027;-76
2024/04/17 02:47:15;;;;;;;0.90;0.90;;;5.30;99.90;;;;;;5346039;26;20015;-76
2024/04/17 02:49:41;;;;;;;1.02;1.02;;;5.20;99.90;;;;;;5305942;26;20037;-77
2024/04/17 02:52:06;;;;;;;0.93;0.93;;;5.10;99.90;;;;;;5338470;26;20000;-76
2024/04/17 02:54:32;;;;;;;0.90;0.90;;;5.00;99.90;;;;;;5338730;26;20039;-77
2024/04/17 02:56:58;;;;;;;0.80;0.80;;;4.90;99.90;;;;;;5343849;26;20008;-76
2024/04/17 02:59:23;;;;;;;0.77;0.77;;;4.80;99.90;;;;;;5331365;26;20212;-76
2024/04/17 03:01:50;;;;;;;1.52;0.95;;;4.80;99.90;;;;;;5336945;26;20399;-77
2024/04/17 03:04:16;;;;;;;0.90;0.90;;;4.90;99.90;;;;;;5332683;26;20458;-76
2024/04/17 03:06:42;;;;;;;0.88;0.88;;;4.90;99.90;;;;;;5310191;26;20020;-76
2024/04/17 03:09:07;;;;;;;0.88;0.88;;;4.90;99.90;;;;;;5314367;26;20008;-77
2024/04/17 03:11:33;;;;;;;0.80;0.80;;;5.00;99.90;;;;;;5333229;26;20344;-77
2024/04/17 03:13:59;;;;;;;0.80;0.80;;;5.10;99.90;;;;;;5302329;26;20001;-77
2024/04/17 03:16:24;;;;;;;0.80;0.80;;;4.90;99.90;;;;;;5309686;26;20017;-77
2024/04/17 03:18:50;;;;;;;0.90;0.90;;;4.90;99.90;;;;;;5334676;26;20013;-76
2024/04/17 03:21:16;;;;;;;0.75;0.75;;;4.90;99.90;;;;;;5338229;26;20000;-77
2024/04/17 03:23:41;;;;;;;1.15;1.10;;;4.90;99.90;;;;;;5334535;26;20060;-76
2024/04/17 03:26:07;;;;;;;0.80;0.80;;;4.80;99.90;;;;;;5330716;26;20016;-77
2024/04/17 03:28:33;;;;;;;0.80;0.80;;;4.80;99.90;;;;;;5309200;26;20087;-76
2024/04/17 03:30:59;;;;;;;0.68;0.68;;;4.90;99.90;;;;;;5339211;26;20001;-76
2024/04/17 03:33:25;;;;;;;0.80;0.80;;;4.80;99.90;;;;;;5336971;26;20019;-76
2024/04/17 03:36:00;;;;;;;0.80;0.80;;;4.80;99.90;;;;;;5336850;26;20267;-76
2024/04/17 03:38:27;;;;;;;1.05;0.90;;;4.70;99.90;;;;;;5330428;26;20067;-76
2024/04/17 03:40:54;;;;;;;0.70;0.70;;;4.60;99.90;;;;;;5336901;26;20190;-77
2024/04/17 03:43:20;;;;;;;0.70;0.70;;;4.60;99.90;;;;;;5341802;26;20009;-76
2024/04/17 03:45:45;;;;;;;0.88;0.88;;;4.50;99.90;;;;;;5306989;26;20062;-78
2024/04/17 03:48:11;;;;;;;1.65;0.95;;;4.60;99.90;;;;;;5335570;26;19997;-76
2024/04/17 03:50:37;;;;;;;0.90;0.90;;;4.60;99.90;;;;;;5303548;26;20339;-76
2024/04/17 03:53:03;;;;;;;1.65;1.15;;;4.70;99.90;;;;;;5338734;26;20001;-76
2024/04/17 03:55:29;;;;;;;0.70;0.70;;;4.70;99.90;;;;;;5332172;26;19993;-76
2024/04/17 03:57:58;;;;;;;0.90;0.90;;;4.60;99.90;;;;;;5333657;26;20004;-76
2024/04/17 04:00:24;;;;;;;0.70;0.70;;;4.60;99.90;;;;;;5308487;26;20091;-77
2024/04/17 04:02:49;;;;;;;1.00;1.00;;;4.60;99.90;;;;;;5310015;26;20009;-76
2024/04/17 04:05:15;;;;;;;0.80;0.80;;;4.60;99.90;;;;;;5329851;26;20009;-76
2024/04/17 04:07:40;;;;;;;0.80;0.80;;;4.70;99.90;;;;;;5312263;26;20024;-77
2024/04/17 04:10:06;;;;;;;0.65;0.65;;;4.70;99.90;;;;;;5326092;26;19998;-77
2024/04/17 04:12:32;;;;;;;0.63;0.63;;;4.50;99.90;;;;;;5330522;26;20029;-77
2024/04/17 04:14:58;;;;;;;0.60;0.60;;;4.50;99.90;;;;;;5294929;26;20077;-76
2024/04/17 04:17:23;;;;;;;0.63;0.63;;;4.60;99.90;;;;;;5306423;26;20107;-76
2024/04/17 04:19:49;;;;;;;0.60;0.60;;;4.70;99.90;;;;;;5339177;26;19997;-76
2024/04/17 04:22:15;;;;;;;0.57;0.57;;;4.80;99.90;;;;;;5338005;26;20477;-76
2024/04/17 04:24:41;;;;;;;0.60;0.60;;;4.70;99.90;;;;;;5337922;26;20026;-76
2024/04/17 04:27:10;;;;;;;0.60;0.60;;;4.70;99.90;;;;;;5326120;26;19993;-75
2024/04/17 04:29:37;;;;;;;0.90;0.90;;;4.60;99.90;;;;;;5302425;26;20001;-76
2024/04/17 04:32:03;;;;;;;0.68;0.68;;;4.60;99.90;;;;;;5292270;26;20001;-76
2024/04/17 04:34:29;;;;;;;0.70;0.70;;;4.50;99.90;;;;;;5322598;26;20681;-76
2024/04/17 04:37:06;;;;;;;0.73;0.73;;;4.50;99.90;;;;;;5321496;26;20001;-75
2024/04/17 04:39:31;;;;;;;0.88;0.88;;;4.40;99.90;;;;;;5286923;26;20596;-75
2024/04/17 04:41:57;;;;;;;0.60;0.60;;;4.40;99.90;;;;;;5290097;26;20021;-75
2024/04/17 04:44:23;;;;;;;0.80;0.80;;;4.30;99.90;;;;;;5308503;26;20006;-76
2024/04/17 04:46:48;;;;;;;0.95;0.88;;;4.30;99.90;;;;;;5276698;27;20181;-76
2024/04/17 04:49:14;;;;;;;0.80;0.80;;;4.40;99.90;;;;;;5297985;26;19999;-76
2024/04/17 04:51:45;;;;;;;0.77;0.77;;;4.50;99.90;;;;;;5294821;26;20122;-76
2024/04/17 04:54:11;;;;;;;0.80;0.80;;;4.50;99.90;;;;;;5296055;26;20052;-76
2024/04/17 04:56:37;;;;;;;0.80;0.80;;;4.50;99.90;;;;;;5283873;27;20002;-76
2024/04/17 04:59:02;;;;;;;2.50;0.80;;;4.60;99.90;;;;;;5294897;26;20022;-76
2024/04/17 05:01:28;;;;;;;0.80;0.80;;;4.60;99.90;;;;;;5294969;26;20005;-76
2024/04/17 05:03:54;;;;;;;1.95;0.90;;;4.60;99.90;;;;;;5309307;26;20008;-74
2024/04/17 05:06:19;;;;;;;0.77;0.77;;;4.70;99.90;;;;;;5298656;26;20018;-76
2024/04/17 05:08:45;;;;;;;1.00;1.00;;;4.50;99.90;;;;;;5297176;27;20088;-75
2024/04/17 05:11:11;;;;;;;0.65;0.65;;;4.50;99.90;;;;;;5244083;27;20007;-76
2024/04/17 05:13:37;;;;;;;0.77;0.77;;;4.60;99.90;;;;;;5276951;27;19998;-75
2024/04/17 05:16:07;;;;;;;0.52;0.52;;;4.50;99.90;;;;;;5300307;27;20013;-76
2024/04/17 05:18:32;;;;;;;0.77;0.77;;;4.30;99.90;;;;;;5303455;27;20012;-77
2024/04/17 05:21:01;;;;;;;0.70;0.70;;;4.30;99.90;;;;;;5304163;27;19997;-76
2024/04/17 05:23:27;;;;;;;0.60;0.60;;;4.30;99.90;;;;;;5292837;27;20005;-76
2024/04/17 05:25:53;;;;;;;0.80;0.80;;;4.20;99.90;;;;;;5292215;27;20426;-76
2024/04/17 05:28:18;;;;;;;0.40;0.40;;;4.20;99.90;;;;;;5292549;26;20041;-76
2024/04/17 05:30:54;;;;;;;0.70;0.70;;;4.20;99.90;;;;;;5293690;27;20879;-76
2024/04/17 05:33:22;;;;;;;0.50;0.50;;;4.20;99.90;;;;;;5293119;27;20002;-76
2024/04/17 05:35:48;;;;;;;0.57;0.57;;;4.30;99.90;;;;;;5270243;26;20447;-76
2024/04/17 05:38:50;;;;;;;0.50;0.50;;;4.30;99.90;;;;;;5310490;26;20013;-76
2024/04/17 05:41:18;;;;;;;0.60;0.60;;;4.20;99.90;;;;;;5318092;26;20982;-75
2024/04/17 05:43:50;;;;;;;0.70;0.70;;;4.20;99.90;;;;;;5301324;26;20013;-75
2024/04/17 05:46:18;;;;;;;0.65;0.65;;;4.30;99.90;;;;;;5320011;26;19998;-75
2024/04/17 05:48:44;;;;;;;;;;;4.30;99.90;;;;;;5329294;26;20008;-76
2024/04/17 05:51:10;;;;;;;0.98;0.93;;;4.30;99.90;;;;;;5305176;26;19933;-76
2024/04/17 05:53:39;;;;;;;0.73;0.73;;;4.30;99.90;;;;;;5326882;26;20036;-75
2024/04/17 05:56:05;;;;;;;0.82;0.82;;;4.30;99.90;;;;;;5301438;27;20549;-77
2024/04/17 05:58:30;;;;;;;0.65;0.65;;;4.30;99.90;;;;;;5297555;26;19997;-77
2024/04/17 06:00:56;;;;;;;0.70;0.70;;;4.30;99.90;;;;;;5337336;26;20015;-76
2024/04/17 06:03:22;;;;;;;0.52;0.52;;;4.40;99.90;;;;;;5311585;26;20037;-77
2024/04/17 06:05:50;;;;;;;0.60;0.60;;;4.30;99.90;;;;;;5286064;27;20013;-76
2024/04/17 06:08:19;;;;;;;1.02;1.02;;;4.30;99.90;;;;;;5339039;26;20029;-76
2024/04/17 06:10:47;;;;;;;0.47;0.47;;;4.40;99.90;;;;;;5332622;26;20000;-76
2024/04/17 06:13:16;;;;;;;0.40;0.40;;;4.30;99.90;;;;;;5334973;26;19997;-80
2024/04/17 06:15:42;;;;;;;0.70;0.70;;;4.30;99.90;;;;;;5339440;26;19997;-80
2024/04/17 06:18:08;;;;;;;0.60;0.60;;;4.30;99.90;;;;;;5313960;26;20017;-81
2024/04/17 06:20:34;;;;;;;0.85;0.85;;;4.40;99.90;;;;;;5339190;26;20008;-81
2024/04/17 06:23:02;;;;;;;0.60;0.60;;;4.20;99.90;;;;;;5337811;26;20000;-77
2024/04/17 06:25:28;;;;;;;0.50;0.50;;;4.30;99.90;;;;;;5312300;26;20007;-81
2024/04/17 06:28:04;;;;;;;;;;;;;;;;;;;;;
2024/04/17 06:30:33;;;;;;;0.68;0.68;;;4.40;99.90;;;;;;5338746;26;20012;-82
2024/04/17 06:32:59;;;;;;;;;;;4.50;99.90;;;;;;5295299;26;20012;-79
2024/04/17 06:35:25;;;;;;;0.60;0.60;;;4.60;99.90;;;;;;5324781;26;20204;-80
2024/04/17 06:37:51;;;;;;;0.90;0.90;;;4.60;99.90;;;;;;5324845;26;20016;-80
2024/04/17 06:40:17;;;;;;;0.63;0.63;;;4.70;99.90;;;;;;5337037;26;20079;-80
2024/04/17 06:42:43;;;;;;;0.85;0.85;;;4.70;99.90;;;;;;5312357;26;20434;-79
2024/04/17 06:45:08;;;;;;;0.60;0.60;;;4.70;99.90;;;;;;5343467;26;19997;-80
2024/04/17 06:47:34;;;;;;;0.65;0.65;;;4.60;99.90;;;;;;5336704;26;20047;-81
2024/04/17 06:49:59;;;;;;;0.50;0.50;;;4.80;99.90;;;;;;5334402;26;20004;-78
2024/04/17 06:52:25;;;;;;;1.45;0.82;;;4.70;99.90;;;;;;5342857;26;20044;-81
2024/04/17 06:54:51;;;;;;;0.73;0.73;;;4.60;99.90;;;;;;5332419;26;20088;-79
2024/04/17 06:57:16;;;;;;;0.90;0.90;;;4.70;99.90;;;;;;5325919;26;20069;-82
2024/04/17 06:59:42;;;;;;;0.82;0.70;;;4.80;99.90;;;;;;5347989;26;20000;-78
2024/04/17 07:02:08;;;;;;;1.05;1.05;;;4.80;99.90;;;;;;5345281;26;20330;-78
2024/04/17 07:04:33;;;;;;;0.90;0.90;;;5.00;99.90;;;;;;5320640;26;20770;-78
2024/04/17 07:06:59;;;;;;;0.52;0.52;;;5.00;99.90;;;;;;5345363;26;20016;-76
2024/04/17 07:09:24;;;;;;;0.90;0.90;;;5.00;99.90;;;;;;5333659;26;19993;-77
2024/04/17 07:11:50;;;;;;;0.68;0.68;;;5.00;99.90;;;;;;5347711;26;19989;-77
2024/04/17 07:14:16;;;;;;;0.40;0.40;;;4.90;99.90;;;;;;5350976;26;20000;-77
2024/04/17 07:16:41;;;;;;;1.02;1.02;;;5.00;99.90;;;;;;5350427;26;20001;-76
2024/04/17 07:19:07;;;;;;;0.60;0.60;;;5.00;99.90;;;;;;5354743;26;20133;-78
2024/04/17 07:21:33;;;;;;;1.13;1.08;;;5.10;99.90;;;;;;5315909;26;20056;-79
2024/04/17 07:23:59;;;;;;;0.95;0.95;;;5.30;99.90;;;;;;5339860;26;20005;-77
2024/04/17 07:26:24;;;;;;;0.95;0.95;;;5.50;99.90;;;;;;5292740;27;20033;-77
2024/04/17 07:28:50;;;;;;;0.90;0.90;;;5.20;99.90;;;;;;5324882;26;20005;-76
2024/04/17 07:31:16;;;;;;;0.77;0.77;;;5.20;99.90;;;;;;5319810;26;20010;-76
2024/04/17 07:33:45;;;;;;;0.90;0.77;;;5.10;99.90;;;;;;5333173;26;20001;-78
2024/04/17 07:36:10;;;;;;;0.88;0.88;;;5.10;99.90;;;;;;5333461;26;20009;-76
2024/04/17 07:38:36;;;;;;;0.65;0.65;;;4.90;99.90;;;;;;5321759;26;20059;-76
2024/04/17 07:41:02;;;;;;;1.23;1.23;;;5.10;99.90;;;;;;5327001;26;19996;-76
2024/04/17 07:43:31;;;;;;;1.60;1.50;;;5.20;99.90;;;;;;5325382;26;20015;-76
2024/04/17 07:46:22;;;;;;;1.40;1.30;;;5.30;99.90;;;;;;5331672;26;19997;-76
2024/04/17 07:48:48;;;;;;;0.98;0.98;;;5.40;99.90;;;;;;5307009;26;20474;-76
2024/04/17 07:51:13;;;;;;;1.70;1.60;;;5.50;99.90;;;;;;5337620;26;19997;-77
2024/04/17 07:53:39;;;;;;;1.40;1.30;;;5.30;99.90;;;;;;5336086;26;20000;-76
2024/04/17 07:56:05;;;;;;;2.28;1.40;;;5.40;99.90;;;;;;5335872;26;20006;-78
2024/04/17 07:58:31;;;;;;;2.05;1.95;;;5.50;99.90;;;;;;5330329;26;19993;-76
2024/04/17 08:00:57;;;;;;;1.77;1.67;;;5.70;99.90;;;;;;5330633;26;20003;-76
2024/04/17 08:03:23;;;;;;;0.82;0.82;;;6.00;99.90;;;;;;5309015;26;20976;-76
2024/04/17 08:05:48;;;;;;;1.02;1.02;;;6.00;99.90;;;;;;5340008;26;20009;-76
2024/04/17 08:08:14;;;;;;;2.03;1.40;;;6.10;99.90;;;;;;5309055;26;20233;-76
2024/04/17 08:10:40;;;;;;;2.08;1.88;;;6.10;99.90;;;;;;5299082;26;20334;-76
2024/04/17 08:13:12;;;;;;;1.08;1.08;;;6.20;99.90;;;;;;5309342;26;20001;-76
2024/04/17 08:15:58;;;;;;;1.98;1.77;;;6.30;99.90;;;;;;5318758;26;20001;-76
2024/04/17 08:18:23;;;;;;;1.98;1.27;;;6.10;99.90;;;;;;5291767;26;20020;-77
2024/04/17 08:20:55;;;;;;;1.90;1.80;;;6.30;99.90;;;;;;5292635;26;20360;-76
2024/04/17 08:23:21;;;;;;;2.42;2.00;;;6.50;99.90;;;;;;5331933;26;20005;-75
2024/04/17 08:25:47;;;;;;;1.63;1.52;;;6.70;99.90;;;;;;5343372;26;20037;-75
2024/04/17 08:28:12;;;;;;;1.45;1.35;;;6.80;99.90;;;;;;5313208;26;19993;-76
2024/04/17 08:30:38;;;;;;;2.10;2.00;;;6.90;99.90;;;;;;5339155;26;19997;-75
2024/04/17 08:33:04;;;;;;;1.83;1.73;;;6.80;99.90;;;;;;5335489;26;19993;-75
2024/04/17 08:35:29;;;;;;;1.50;1.40;;;6.90;99.90;;;;;;5295271;26;20005;-75
2024/04/17 08:37:55;;;;;;;2.50;2.30;;;7.00;99.90;;;;;;5322805;26;20008;-74
2024/04/17 08:40:21;;;;;;;3.35;2.53;;;6.90;99.90;;;;;;5324250;26;20115;-76
2024/04/17 08:42:51;;;;;;;1.60;1.50;;;7.00;99.90;;;;;;5330373;26;20009;-75
2024/04/17 08:45:27;;;;;;;2.00;1.83;;;7.00;99.90;;;;;;5300204;26;20002;-75
2024/04/17 08:47:55;;;;;;;2.30;2.10;;;6.70;99.90;;;;;;5331699;26;20028;-75
2024/04/17 08:50:24;;;;;;;2.22;2.00;;;6.70;99.90;;;;;;5329924;26;20680;-75
2024/04/17 08:52:52;;;;;;;1.90;1.80;;;6.80;99.90;;;;;;5333293;26;20000;-76
2024/04/17 08:55:19;;;;;;;1.70;1.60;;;7.40;99.90;;;;;;5300021;27;20001;-77
2024/04/17 08:57:44;;;;;;;1.90;1.80;;;7.30;99.90;;;;;;5321541;26;20008;-76
2024/04/17 09:00:11;;;;;;;1.92;1.73;;;7.10;99.90;;;;;;5320246;26;20748;-75
2024/04/17 09:02:40;;;;;;;2.10;1.77;;;7.00;99.90;;;;;;5310166;26;20006;-76
2024/04/17 09:05:08;;;;;;;2.15;1.67;;;7.00;99.90;;;;;;5295780;26;20008;-75
2024/04/17 09:07:36;;;;;;;3.78;3.10;;;6.90;99.90;;;;;;5329702;26;20012;-77
2024/04/17 09:10:01;;;;;;;3.08;2.42;;;7.10;99.90;;;;;;5325815;26;20001;-77
2024/04/17 09:12:30;;;;;;;3.70;2.58;;;7.10;99.90;;;;;;5325221;26;20074;-75
2024/04/17 09:14:57;;;;;;;;;;;7.30;99.90;;;;;;5309966;26;20016;-75
2024/04/17 09:17:23;;;;;;;3.70;2.55;;;7.50;99.90;;;;;;5315538;26;19933;-75
2024/04/17 09:19:49;;;;;;;1.40;1.30;;;7.60;99.90;;;;;;5316282;26;20002;-76
2024/04/17 09:22:15;;;;;;;3.45;2.92;;;7.60;99.90;;;;;;5326887;26;20016;-76
2024/04/17 09:24:41;;;;;;;4.35;1.75;;;7.30;99.90;;;;;;5319444;26;19997;-75
2024/04/17 09:27:13;;;;;;;2.20;1.40;;;7.30;99.90;;;;;;5327021;26;20606;-76
2024/04/17 09:29:42;;;;;;;2.97;2.60;;;7.30;99.90;;;;;;5326699;26;20022;-75
2024/04/17 09:32:14;;;;;;;;;;;7.50;99.90;;;;;;5301783;26;20025;-75
2024/04/17 09:34:40;;;;;;;2.70;2.45;;;7.80;99.90;;;;;;5293501;27;20283;-76
2024/04/17 09:37:12;;;;;;;3.83;3.05;;;8.00;99.90;;;;;;5312701;26;20001;-75
2024/04/17 09:39:38;;;;;;;3.45;2.72;;;8.30;99.90;;;;;;5289228;26;20389;-76
2024/04/17 09:42:07;;;;;;;1.95;1.85;;;8.00;99.90;;;;;;5283669;26;20127;-76
2024/04/17 09:44:37;;;;;;;2.88;2.50;;;7.80;99.90;;;;;;5279561;26;19994;-75
2024/04/17 09:47:09;;;;;;;2.97;2.78;;;8.00;99.90;;;;;;5291112;26;20399;-75
2024/04/17 09:49:43;;;;;;;2.45;2.30;;;7.70;99.90;;;;;;5308788;26;19998;-75
2024/04/17 09:52:18;;;;;;;2.30;2.13;;;7.50;99.90;;;;;;5288173;26;20009;-76
2024/04/17 09:54:44;;;;;;;3.08;2.13;;;7.40;99.90;;;;;;5281972;26;20440;-76
2024/04/17 09:57:18;;;;;;;2.63;1.98;;;7.10;99.90;;;;;;5293854;26;20075;-75
2024/04/17 09:59:45;;;;;;;2.42;2.22;;;7.00;99.90;;;;;;5290994;27;20002;-76
2024/04/17 10:02:14;;;;;;;2.95;1.85;;;6.90;99.90;;;;;;5312718;26;20083;-75
2024/04/17 10:04:41;;;;;;;1.95;1.75;;;6.70;99.90;;;;;;5291727;26;20006;-76
2024/04/17 10:07:13;;;;;;;2.38;2.17;;;7.00;99.90;;;;;;5282029;27;20016;-76
2024/04/17 10:09:42;;;;;;;2.17;1.95;;;7.20;99.90;;;;;;5312491;26;20346;-75
2024/04/17 10:12:12;;;;;;;2.97;2.60;;;7.50;99.90;;;;;;5284995;26;21776;-76
2024/04/17 10:14:39;;;;;;;3.83;3.17;;;7.50;99.90;;;;;;5286880;26;20088;-75
2024/04/17 10:17:06;;;;;;;5.32;3.00;;;7.90;99.90;;;;;;5266254;27;20080;-76
2024/04/17 10:19:32;;;;;;;2.03;1.50;;;8.20;99.90;;;;;;5286487;27;20084;-75
2024/04/17 10:21:58;;;;;;;3.35;2.33;;;8.10;99.90;;;;;;5298040;26;20035;-75
2024/04/17 10:24:24;;;;;;;5.25;3.20;;;8.30;99.90;;;;;;5281475;26;20025;-76
2024/04/17 10:26:52;;;;;;;4.00;2.53;;;8.50;99.90;;;;;;5293827;27;20092;-76
2024/04/17 10:29:25;;;;;;;4.25;3.50;;;8.40;99.90;;;;;;5281019;27;20013;-75
2024/04/17 10:31:59;;;;;;;3.08;2.65;;;8.60;99.90;;;;;;5289714;26;19998;-75
2024/04/17 10:34:47;;;;;;;3.08;2.85;;;8.90;99.90;;;;;;5295611;26;20041;-75
2024/04/17 10:37:16;;;;;;;;;;;8.80;99.90;;;;;;5272833;27;20018;-75
2024/04/17 10:39:43;;;;;;;2.72;2.53;;;8.40;99.90;;;;;;5266444;26;19927;-75
2024/04/17 10:42:12;;;;;;;3.92;3.13;;;8.50;99.90;;;;;;5252695;27;20006;-75
2024/04/17 10:44:52;;;;;;;3.70;2.90;;;8.50;99.90;;;;;;5264501;27;20014;-74
2024/04/17 10:47:26;;;;;;;3.05;2.50;;;8.30;99.90;;;;;;5257858;27;20216;-75
2024/04/17 10:50:05;;;;;;;4.22;3.47;;;8.20;99.90;;;;;;5270183;27;20021;-74
2024/04/17 10:52:32;;;;;;;3.25;2.90;;;8.70;99.90;;;;;;5267145;27;19994;-75
2024/04/17 10:54:59;;;;;;;2.25;2.05;;;8.90;99.90;;;;;;5259633;27;20049;-77
2024/04/17 10:57:28;;;;;;;3.03;2.37;;;8.40;99.90;;;;;;5254384;27;20006;-75
2024/04/17 10:59:54;;;;;;;3.25;2.30;;;8.00;99.90;;;;;;5252622;27;20306;-76
2024/04/17 11:02:21;;;;;;;2.53;2.08;;;7.70;99.90;;;;;;5255103;27;19998;-76
2024/04/17 11:04:47;;;;;;;2.50;2.20;;;7.40;99.90;;;;;;5266325;27;20002;-76
2024/04/17 11:07:13;;;;;;;2.92;2.08;;;7.40;99.90;;;;;;5260780;27;20013;-77
2024/04/17 11:09:46;;;;;;;2.17;1.95;;;7.20;99.90;;;;;;5257436;27;20006;-77
2024/04/17 11:12:16;;;;;;;2.80;2.40;;;7.10;99.90;;;;;;5267589;27;20003;-77
2024/04/17 11:14:45;;;;;;;2.97;2.65;;;7.40;99.90;;;;;;5273247;27;20012;-76
2024/04/17 11:17:11;;;;;;;2.45;2.10;;;7.40;99.90;;;;;;5251050;27;20746;-76
2024/04/17 11:20:11;;;;;;;1.73;1.58;;;7.40;99.90;;;;;;5266698;27;20005;-76
2024/04/17 11:22:37;;;;;;;2.40;1.85;;;7.00;99.90;;;;;;5248192;27;20018;-76
2024/04/17 11:25:13;;;;;;;1.90;1.80;;;6.90;99.90;;;;;;5278691;27;20003;-76
2024/04/17 11:27:40;;;;;;;1.25;1.15;;;7.00;99.90;;;;;;5263752;27;20003;-76
2024/04/17 11:30:35;;;;;;;1.70;1.60;;;7.10;99.90;;;;;;5271261;27;20090;-76
2024/04/17 11:33:04;;;;;;;1.40;1.30;;;7.20;99.90;;;;;;5202126;27;20930;-76
2024/04/17 11:35:29;;;;;;;1.77;1.23;;;7.70;99.90;;;;;;5240042;27;19999;-77
2024/04/17 11:37:55;;;;;;;3.35;2.60;;;7.80;99.90;;;;;;5204511;27;20093;-76
2024/04/17 11:40:21;;;;;;;4.43;2.78;;;7.90;99.90;;;;;;5253345;27;20003;-77
2024/04/17 11:42:46;;;;;;;2.50;2.30;;;8.20;99.90;;;;;;5266893;27;20026;-76
2024/04/17 11:45:13;;;;;;;2.53;2.33;;;7.90;99.90;;;;;;5259379;27;20114;-76
2024/04/17 11:47:40;;;;;;;2.28;2.00;;;8.00;99.90;;;;;;5256334;27;20016;-76
2024/04/17 11:50:09;;;;;;;4.55;3.30;;;8.00;99.90;;;;;;5260474;27;20008;-76
2024/04/17 11:52:34;;;;;;;3.10;2.60;;;8.30;99.90;;;;;;5264492;27;20010;-76
2024/04/17 11:55:00;;;;;;;2.17;1.67;;;8.80;99.90;;;;;;5259284;27;20950;-76
2024/04/17 11:57:28;;;;;;;1.45;1.30;;;8.40;99.90;;;;;;5211574;27;20007;-76
2024/04/17 11:59:56;;;;;;;1.50;1.40;;;7.70;99.90;;;;;;5266699;27;19998;-76
2024/04/17 12:02:25;;;;;;;1.33;1.23;;;6.70;99.90;;;;;;5299829;26;20989;-77
2024/04/17 12:04:52;;;;;;;1.23;1.08;;;6.30;99.90;;;;;;5302709;26;19997;-78
2024/04/17 12:07:18;;;;;;;1.65;1.20;;;6.00;99.90;;;;;;5309190;26;20004;-78
2024/04/17 12:09:48;;;;;;;0.77;0.77;;;5.80;99.90;;;;;;5302667;26;19997;-78
2024/04/17 12:12:14;;;;;;;1.10;1.02;;;5.90;99.90;;;;;;5334185;26;20353;-78
2024/04/17 12:14:40;;;;;;;1.30;1.20;;;6.10;99.90;;;;;;5307432;26;20298;-78
2024/04/17 12:17:08;;;;;;;2.03;1.33;;;6.10;99.90;;;;;;5330750;26;20011;-78
2024/04/17 12:19:34;;;;;;;1.00;0.95;;;6.10;99.90;;;;;;5313617;26;20462;-79
2024/04/17 12:21:59;;;;;;;1.30;1.20;;;5.90;99.90;;;;;;5315210;26;20001;-78
2024/04/17 12:26:49;;;;;;;1.77;1.20;;;5.80;99.90;;;;;;5336238;26;20001;-78
2024/04/17 12:27:11;;;;;;;1.50;1.40;;;6.00;99.90;;;;;;5317537;26;20554;-79
2024/04/17 12:29:37;;;;;;;2.38;1.40;;;6.10;99.90;;;;;;5299837;26;20056;-78
2024/04/17 12:32:02;;;;;;;1.45;1.30;;;6.10;99.90;;;;;;5338338;26;19996;-78
2024/04/17 12:34:28;;;;;;;1.58;1.48;;;6.30;99.90;;;;;;5343830;26;20033;-79
2024/04/17 12:36:55;;;;;;;1.20;1.10;;;6.10;99.90;;;;;;5314229;26;20003;-78
2024/04/17 12:39:21;;;;;;;1.27;1.17;;;6.20;99.90;;;;;;5273304;26;20013;-77
2024/04/17 12:41:47;;;;;;;1.50;1.40;;;6.40;99.90;;;;;;5261285;27;20007;-79
2024/04/17 12:44:13;;;;;;;1.50;1.40;;;6.50;99.90;;;;;;5258429;27;20436;-79
2024/04/17 12:46:38;;;;;;;2.30;2.10;;;6.60;99.90;;;;;;5257187;27;20017;-78
2024/04/17 12:49:05;;;;;;;1.60;1.50;;;6.70;99.90;;;;;;5269684;27;20010;-79
2024/04/17 12:51:31;;;;;;;1.70;1.60;;;6.60;99.90;;;;;;5265133;27;20013;-79
2024/04/17 12:53:57;;;;;;;1.63;1.33;;;6.80;99.90;;;;;;5263676;27;20014;-80
2024/04/17 12:56:22;;;;;;;1.73;1.63;;;6.80;99.90;;;;;;5262847;27;20041;-80
2024/04/17 12:58:48;;;;;;;1.33;1.23;;;6.90;99.90;;;;;;5254547;27;19999;-78
2024/04/17 13:01:14;;;;;;;1.30;1.20;;;6.80;99.90;;;;;;5258495;27;20066;-78